Time;durP1;ratioP1;P1;durP2;ratioP2;P2;SDS_P1;SDS_P2;PMS_P1;PMS_P2;Temp;Humidity;BMP_temperature;BMP_pressure;BME280_temperature;BME280_humidity;BME280_pressure;Samples;Min_cycle;Max_cycle;Signal;HPM_P1;HPM_P2
2024/04/01 00:02:22;;;;;;;13.13;1.30;;;;;;;-144.52;73.89;85076.44;7399228;19;20398;-42
2024/04/01 00:04:48;;;;;;;13.27;1.10;;;;;;;-144.52;74.19;85094.28;7397410;19;20891;-47
2024/04/01 00:07:14;;;;;;;12.97;1.10;;;;;;;-144.52;74.12;85074.44;7400469;19;20931;-44
2024/04/01 00:09:43;;;;;;;13.20;1.13;;;;;;;-144.52;74.00;85092.31;7401083;19;20907;-42
2024/04/01 00:12:09;;;;;;;13.17;1.10;;;;;;;-144.52;74.06;85096.28;7398226;19;20396;-41
2024/04/01 00:14:35;;;;;;;13.23;1.10;;;;;;;-144.52;73.94;85122.06;7395496;19;20957;-42
2024/04/01 00:17:01;;;;;;;13.17;1.10;;;;;;;-144.52;74.55;85084.38;7387720;19;20410;-44
2024/04/01 00:19:27;;;;;;;13.33;1.30;;;;;;;-144.52;74.52;85090.31;7393215;19;20406;-42
2024/04/01 00:21:53;;;;;;;13.57;1.23;;;;;;;-144.52;74.57;85112.16;7396014;19;20438;-42
2024/04/01 00:24:19;;;;;;;13.40;1.10;;;;;;;-144.52;74.76;85094.28;7397202;19;20409;-42
2024/04/01 00:26:48;;;;;;;13.30;1.30;;;;;;;-144.52;74.81;85112.16;7400339;19;20398;-43
2024/04/01 00:29:14;;;;;;;13.03;1.10;;;;;;;-144.52;74.74;85056.59;7399632;19;20396;-42
2024/04/01 00:31:40;;;;;;;14.10;1.10;;;;;;;-144.52;74.56;85082.38;7396360;19;20731;-44
2024/04/01 00:34:06;;;;;;;13.20;1.00;;;;;;;-144.52;74.34;85070.47;7395470;19;20445;-46
2024/04/01 00:36:32;;;;;;;13.13;1.10;;;;;;;-144.52;74.61;85090.31;7398201;19;20404;-42
2024/04/01 00:38:58;;;;;;;13.27;1.07;;;;;;;-144.52;74.91;85106.19;7398797;19;20399;-42
2024/04/01 00:41:27;;;;;;;13.67;1.37;;;;;;;-144.52;75.08;85118.09;7399322;19;20389;-42
2024/04/01 00:43:56;;;;;;;13.37;1.10;;;;;;;-144.52;74.72;85072.47;7395825;19;20359;-43
2024/04/01 00:46:23;;;;;;;13.30;1.03;;;;;;;-144.52;74.83;85074.44;7399244;19;20404;-42
2024/04/01 00:48:50;;;;;;;13.87;1.30;;;;;;;-144.52;75.00;85090.31;7396436;19;20427;-42
2024/04/01 00:51:18;;;;;;;13.60;1.17;;;;;;;-144.52;75.32;85118.09;7395415;19;20414;-43
2024/04/01 00:53:45;;;;;;;13.70;1.40;;;;;;;-144.52;75.20;85086.34;7399086;19;20386;-49
2024/04/01 00:56:12;;;;;;;13.17;1.10;;;;;;;-144.52;75.45;85098.25;7395380;19;20405;-48
2024/04/01 00:58:40;;;;;;;12.97;1.13;;;;;;;-144.52;75.12;85094.28;7397215;19;20413;-43
2024/04/01 01:01:12;;;;;;;13.23;1.20;;;;;;;-144.52;75.50;85110.16;7398860;19;20733;-42
2024/04/01 01:03:38;;;;;;;13.13;1.10;;;;;;;-144.52;75.39;85092.31;7396039;19;20943;-44
2024/04/01 01:06:04;;;;;;;13.43;1.20;;;;;;;-144.52;74.93;85118.09;7396619;19;20399;-43
2024/04/01 01:08:31;;;;;;;13.43;1.17;;;;;;;-144.52;74.91;85080.41;7397161;19;20413;-44
2024/04/01 01:10:57;;;;;;;13.50;1.10;;;;;;;-144.52;75.46;85108.19;7396024;19;20425;-42
2024/04/01 01:13:22;;;;;;;13.20;1.30;;;;;;;-144.52;75.18;85118.09;7395074;19;20413;-42
2024/04/01 01:15:49;;;;;;;13.57;1.20;;;;;;;-144.52;75.05;85106.19;7395414;19;20404;-42
2024/04/01 01:18:17;;;;;;;13.50;1.10;;;;;;;-144.52;75.35;85118.09;7396442;19;20404;-42
2024/04/01 01:20:43;;;;;;;13.17;1.10;;;;;;;-144.52;75.52;85128.03;7395141;19;20413;-44
2024/04/01 01:23:12;;;;;;;13.37;1.30;;;;;;;-144.52;75.18;85110.16;7395278;19;20912;-44
2024/04/01 01:25:38;;;;;;;13.27;1.10;;;;;;;-144.52;75.10;85102.22;7396507;19;21422;-43
2024/04/01 01:28:08;;;;;;;13.13;1.00;;;;;;;-144.52;75.38;85074.44;7395094;19;20412;-42
2024/04/01 01:30:37;;;;;;;13.30;1.10;;;;;;;-144.52;75.32;85126.03;7394512;19;20430;-46
2024/04/01 01:33:06;;;;;;;13.23;1.20;;;;;;;-144.52;75.25;85088.34;7395192;19;20444;-43
2024/04/01 01:35:37;;;;;;;13.17;1.10;;;;;;;-144.52;75.68;85116.13;7394462;19;20372;-44
2024/04/01 01:38:04;;;;;;;13.03;1.00;;;;;;;-144.52;75.77;85086.34;7396753;19;20980;-46
2024/04/01 01:40:33;;;;;;;13.40;1.27;;;;;;;-144.52;75.33;85100.25;7394564;19;20795;-48
2024/04/01 01:42:59;;;;;;;13.30;1.20;;;;;;;-144.52;75.90;85108.19;7397284;19;20771;-45
2024/04/01 01:45:25;;;;;;;12.97;1.10;;;;;;;-144.52;76.18;85104.22;7396220;19;20708;-46
2024/04/01 01:47:51;;;;;;;13.23;1.30;;;;;;;-144.52;75.31;85120.09;7390772;19;20428;-42
2024/04/01 01:50:17;;;;;;;13.27;1.30;;;;;;;-144.52;75.36;85128.03;7395095;19;20504;-47
2024/04/01 01:52:43;;;;;;;13.03;1.00;;;;;;;-144.52;75.47;85128.03;7396047;19;20970;-48
2024/04/01 01:55:09;;;;;;;13.13;1.10;;;;;;;-144.52;76.28;85116.13;7394656;19;20407;-48
2024/04/01 01:57:38;;;;;;;12.97;1.00;;;;;;;-144.52;75.78;85122.06;7401127;19;20401;-46
2024/04/01 02:00:05;;;;;;;13.30;1.10;;;;;;;-144.52;75.67;85133.97;7403925;19;20399;-43
2024/04/01 02:02:32;;;;;;;13.23;1.10;;;;;;;-144.52;76.33;85130.00;7403299;19;20453;-44
2024/04/01 02:04:59;;;;;;;13.13;1.00;;;;;;;-144.52;75.92;85132.00;7402533;19;20410;-47
2024/04/01 02:07:25;;;;;;;13.27;1.10;;;;;;;-144.52;75.53;85084.38;7400096;19;20359;-45
2024/04/01 02:09:51;;;;;;;13.27;1.20;;;;;;;-144.52;76.01;85122.06;7402619;19;20407;-43
2024/04/01 02:12:17;;;;;;;13.23;1.10;;;;;;;-144.52;75.79;85108.19;7404069;19;20407;-46
2024/04/01 02:14:46;;;;;;;13.30;1.13;;;;;;;-144.52;75.46;85112.16;7400417;19;21037;-42
2024/04/01 02:17:12;;;;;;;14.47;2.80;;;;;;;-144.52;75.82;85124.06;7398026;19;20403;-47
2024/04/01 02:19:42;;;;;;;13.23;1.30;;;;;;;-144.52;75.98;85108.19;7402893;19;20407;-46
2024/04/01 02:22:12;;;;;;;13.30;1.10;;;;;;;-144.52;76.28;85122.06;7402514;19;20418;-43
2024/04/01 02:24:38;;;;;;;16.10;1.10;;;;;;;-144.52;76.10;85130.00;7401921;19;20403;-48
2024/04/01 02:27:05;;;;;;;13.90;1.97;;;;;;;-144.52;76.15;85110.16;7402395;19;20410;-43
2024/04/01 02:29:30;;;;;;;13.23;1.00;;;;;;;-144.52;75.72;85102.22;7401793;19;20713;-43
2024/04/01 02:31:59;;;;;;;13.17;0.90;;;;;;;-144.52;75.75;85130.00;7399767;19;20415;-45
2024/04/01 02:34:25;;;;;;;13.33;1.10;;;;;;;-144.52;76.27;85106.19;7402778;19;20418;-43
2024/04/01 02:36:51;;;;;;;14.10;3.00;;;;;;;-144.52;76.40;85139.94;7402379;19;20438;-43
2024/04/01 02:39:17;;;;;;;13.27;1.10;;;;;;;-144.52;76.21;85133.97;7402121;19;20399;-43
2024/04/01 02:41:44;;;;;;;13.33;1.10;;;;;;;-144.52;76.37;85145.88;7403014;19;20407;-42
2024/04/01 02:44:10;;;;;;;13.07;1.03;;;;;;;-144.52;76.29;85133.97;7401237;19;20439;-43
2024/04/01 02:46:36;;;;;;;14.97;4.13;;;;;;;-144.52;76.49;85135.97;7400547;19;20404;-44
2024/04/01 02:49:04;;;;;;;13.17;1.20;;;;;;;-144.52;76.44;85132.00;7401135;19;20454;-48
2024/04/01 02:51:30;;;;;;;13.23;1.00;;;;;;;-144.52;76.49;85124.06;7400490;19;20387;-48
2024/04/01 02:53:56;;;;;;;13.37;1.10;;;;;;;-144.52;76.55;85141.91;7403525;19;20400;-42
2024/04/01 02:56:22;;;;;;;13.27;1.13;;;;;;;-144.52;76.73;85159.78;7402358;19;20432;-42
2024/04/01 02:58:49;;;;;;;13.23;1.07;;;;;;;-144.52;76.10;85124.06;7401134;19;20441;-44
2024/04/01 03:01:15;;;;;;;13.43;1.10;;;;;;;-144.52;76.59;85122.06;7400601;19;20429;-42
2024/04/01 03:03:42;;;;;;;13.00;1.10;;;;;;;-144.52;76.87;85147.88;7399187;19;20403;-42
2024/04/01 03:06:10;;;;;;;13.80;1.07;;;;;;;-144.52;76.49;85130.00;7400610;19;20391;-43
2024/04/01 03:08:38;;;;;;;13.23;1.20;;;;;;;-144.52;76.59;85145.88;7401050;19;20915;-45
2024/04/01 03:11:05;;;;;;;13.23;1.10;;;;;;;-144.52;76.92;85149.84;7400439;19;20405;-42
2024/04/01 03:13:31;;;;;;;13.07;1.10;;;;;;;-144.52;76.61;85149.84;7402554;19;20390;-42
2024/04/01 03:15:58;;;;;;;14.70;1.33;;;;;;;-144.52;77.15;85153.81;7398728;19;20479;-42
2024/04/01 03:18:25;;;;;;;13.57;1.37;;;;;;;-144.52;76.40;85137.94;7400747;19;20414;-43
2024/04/01 03:20:52;;;;;;;13.43;1.20;;;;;;;-144.52;76.67;85167.72;7398567;19;20732;-45
2024/04/01 03:23:20;;;;;;;13.70;1.20;;;;;;;-144.52;76.92;85139.94;7399703;19;20419;-42
2024/04/01 03:25:49;;;;;;;13.07;1.00;;;;;;;-144.52;76.73;85151.84;7394152;19;21324;-43
2024/04/01 03:28:15;;;;;;;13.23;1.00;;;;;;;-144.52;76.68;85147.88;7400276;19;20470;-43
2024/04/01 03:30:41;;;;;;;13.13;1.10;;;;;;;-144.52;76.87;85165.72;7401180;19;20419;-42
2024/04/01 03:33:07;;;;;;;13.37;1.13;;;;;;;-144.52;76.57;85149.84;7398274;19;20512;-43
2024/04/01 03:35:33;;;;;;;13.13;1.10;;;;;;;-144.52;76.65;85155.81;7399818;19;20754;-48
2024/04/01 03:37:59;;;;;;;13.33;1.20;;;;;;;-144.52;76.70;85147.88;7401803;19;20399;-47
2024/04/01 03:40:28;;;;;;;13.17;1.10;;;;;;;-144.52;76.99;85153.81;7398488;19;20972;-42
2024/04/01 03:42:54;;;;;;;13.13;0.93;;;;;;;-144.52;76.51;85153.81;7397763;19;20744;-42
2024/04/01 03:45:20;;;;;;;13.40;1.20;;;;;;;-144.52;76.66;85153.81;7400211;19;20412;-42
2024/04/01 03:47:46;;;;;;;13.10;1.00;;;;;;;-144.52;76.78;85133.97;7400459;19;20935;-46
2024/04/01 03:50:13;;;;;;;13.17;1.00;;;;;;;-144.52;76.50;85149.84;7398486;19;20403;-48
2024/04/01 03:52:40;;;;;;;13.13;0.90;;;;;;;-144.52;76.98;85165.72;7401648;19;20390;-42
2024/04/01 03:55:08;;;;;;;13.47;1.20;;;;;;;-144.52;77.32;85135.97;7400188;19;20407;-43
2024/04/01 03:57:37;;;;;;;13.17;1.13;;;;;;;-144.52;76.73;85161.75;7398024;19;20411;-45
2024/04/01 04:00:04;;;;;;;13.10;1.10;;;;;;;-144.52;76.90;85143.91;7397775;19;20434;-43
2024/04/01 04:02:30;;;;;;;13.33;1.10;;;;;;;-144.52;77.30;85149.84;7398465;19;20440;-43
2024/04/01 04:04:56;;;;;;;13.60;1.30;;;;;;;-144.52;76.96;85147.88;7394382;19;20730;-44
2024/04/01 04:07:22;;;;;;;12.97;1.10;;;;;;;-144.52;77.07;85149.84;7398429;19;20441;-43
2024/04/01 04:09:49;;;;;;;13.17;1.20;;;;;;;-144.52;77.22;85132.00;7401093;19;20371;-43
2024/04/01 04:12:15;;;;;;;13.13;1.00;;;;;;;-144.52;76.80;85133.97;7400495;19;20739;-44
2024/04/01 04:14:43;;;;;;;13.43;1.17;;;;;;;-144.52;76.04;85118.09;7396794;19;20404;-42
2024/04/01 04:17:09;;;;;;;13.37;1.20;;;;;;;-144.52;75.78;85094.28;7398023;19;20939;-42
2024/04/01 04:19:38;;;;;;;153.77;140.27;;;;;;;-144.52;75.43;85090.31;7397346;19;20408;-42
2024/04/01 04:22:06;;;;;;;835.23;778.40;;;;;;;-144.52;75.50;85050.63;7398346;19;20412;-43
2024/04/01 04:24:33;;;;;;;823.23;767.07;;;;;;;-144.52;75.45;85048.66;7399018;19;20409;-42
2024/04/01 04:27:02;;;;;;;830.97;774.63;;;;;;;-144.52;74.87;85032.78;7399005;19;20736;-42
2024/04/01 04:29:28;;;;;;;836.07;779.67;;;;;;;-144.52;75.63;85042.69;7400198;19;20406;-44
2024/04/01 04:32:08;;;;;;;830.60;774.53;;;;;;;-144.52;75.46;85070.47;7400633;19;20398;-42
2024/04/01 04:34:34;;;;;;;827.33;771.43;;;;;;;-144.52;75.03;85026.81;7398587;19;20371;-42
2024/04/01 04:37:00;;;;;;;826.03;770.23;;;;;;;-144.52;74.95;85006.97;7396847;19;20366;-42
2024/04/01 04:39:26;;;;;;;823.30;767.60;;;;;;;-144.52;75.04;85003.00;7397816;19;20465;-42
2024/04/01 04:41:52;;;;;;;833.97;777.67;;;;;;;-144.52;74.85;85005.00;7398359;19;20415;-48
2024/04/01 04:44:19;;;;;;;837.73;781.17;;;;;;;-144.52;74.83;84979.22;7397271;19;20275;-45
2024/04/01 04:46:45;;;;;;;837.33;781.00;;;;;;;-144.52;74.94;85005.00;7398375;19;20411;-42
2024/04/01 04:49:13;;;;;;;832.63;776.47;;;;;;;-144.52;74.91;84999.03;7397866;19;20404;-43
2024/04/01 04:51:39;;;;;;;832.17;775.97;;;;;;;-144.52;74.96;85001.03;7398791;19;20397;-43
2024/04/01 04:54:06;;;;;;;836.90;780.45;;;;;;;-144.52;74.81;84991.13;7397395;19;20746;-45
2024/04/01 04:56:32;;;;;;;830.95;774.72;;;;;;;-144.52;74.69;84971.28;7394713;19;20131;-43
2024/04/01 04:58:59;;;;;;;833.63;777.37;;;;;;;-144.52;74.14;84937.53;7397933;19;20129;-46
2024/04/01 05:01:25;;;;;;;827.17;771.07;;;;;;;-144.52;74.35;84937.53;7397890;19;20418;-42
2024/04/01 05:03:52;;;;;;;832.50;776.23;;;;;;;-144.52;74.25;84973.25;7394856;19;20448;-41
2024/04/01 05:06:20;;;;;;;831.77;775.37;;;;;;;-144.52;74.33;84969.28;7399220;19;20419;-42
2024/04/01 05:08:47;;;;;;;809.67;754.40;;;;;;;-144.52;74.41;84967.31;7398324;19;20407;-42
2024/04/01 05:11:13;;;;;;;836.40;779.93;;;;;;;-144.52;74.23;84951.44;7396748;19;20962;-45
2024/04/01 05:13:39;;;;;;;829.20;772.90;;;;;;;-144.52;74.35;84951.44;7394127;19;20410;-42
2024/04/01 05:16:06;;;;;;;833.20;776.60;;;;;;;-144.52;74.22;84935.56;7395797;19;20133;-46
2024/04/01 05:18:32;;;;;;;839.20;782.30;;;;;;;-144.52;74.36;84967.31;7395008;19;20474;-45
2024/04/01 05:20:58;;;;;;;829.53;772.97;;;;;;;-144.52;74.38;84955.41;7395338;19;20417;-45
2024/04/01 05:23:27;;;;;;;835.33;778.53;;;;;;;-144.52;74.19;84943.50;7396271;19;20431;-42
2024/04/01 05:25:53;;;;;;;842.80;785.42;;;;;;;-144.52;74.31;84911.75;7397221;19;20412;-45
2024/04/01 05:28:19;;;;;;;828.43;771.70;;;;;;;-144.52;74.37;84943.50;7397050;19;20133;-49
2024/04/01 05:30:50;;;;;;;831.35;774.40;;;;;;;-144.52;74.52;84955.41;7393630;19;20951;-47
2024/04/01 05:33:18;;;;;;;836.27;779.03;;;;;;;-144.52;74.43;84919.69;7396012;19;20157;-45
2024/04/01 05:35:44;;;;;;;834.67;777.43;;;;;;;-144.52;74.70;84971.28;7394484;19;20419;-49
2024/04/01 05:38:11;;;;;;;834.33;777.13;;;;;;;-144.52;74.60;84957.38;7396101;19;20403;-46
2024/04/01 05:40:39;;;;;;;832.93;775.90;;;;;;;-144.52;74.91;84955.41;7396533;19;20471;-45
2024/04/01 05:43:08;;;;;;;822.50;765.90;;;;;;;-144.52;75.03;84983.16;7395524;19;20759;-47
2024/04/01 05:45:34;;;;;;;838.63;781.53;;;;;;;-144.52;74.82;84949.44;7396355;19;20427;-45
2024/04/01 05:48:00;;;;;;;842.03;784.57;;;;;;;-144.52;74.93;84955.41;7394169;19;20440;-44
2024/04/01 05:50:27;;;;;;;836.93;779.97;;;;;;;-144.52;75.38;84987.16;7395789;19;20398;-44
2024/04/01 05:52:53;;;;;;;828.00;771.77;;;;;;;-144.52;75.02;84975.25;7394837;19;20411;-45
2024/04/01 05:55:19;;;;;;;815.13;759.33;;;;;;;-144.52;75.07;84983.16;7396399;19;20376;-44
2024/04/01 05:57:48;;;;;;;824.67;768.60;;;;;;;-144.52;74.90;84969.28;7395939;19;20458;-46
2024/04/01 06:00:14;;;;;;;834.27;777.87;;;;;;;-144.52;75.10;84983.16;7397163;19;20406;-43
2024/04/01 06:02:40;;;;;;;834.63;778.03;;;;;;;-144.52;75.17;84985.16;7396219;19;20419;-45
2024/04/01 06:05:07;;;;;;;841.53;784.47;;;;;;;-144.52;75.21;84999.03;7396585;19;20140;-45
2024/04/01 06:07:33;;;;;;;835.07;778.53;;;;;;;-144.52;75.21;84987.16;7394278;19;20414;-46
2024/04/01 06:09:59;;;;;;;826.70;770.63;;;;;;;-144.52;75.16;84987.16;7394346;19;20373;-42
2024/04/01 06:12:26;;;;;;;830.87;774.60;;;;;;;-144.52;75.26;84969.28;7394439;19;20369;-46
2024/04/01 06:14:54;;;;;;;835.50;778.93;;;;;;;-144.52;75.17;84987.16;7392969;19;20415;-48
2024/04/01 06:17:20;;;;;;;828.80;772.53;;;;;;;-144.52;75.65;85003.00;7395063;19;20422;-44
2024/04/01 06:19:47;;;;;;;831.73;775.27;;;;;;;-144.52;75.72;85014.91;7396729;19;20904;-44
2024/04/01 06:22:13;;;;;;;825.80;769.23;;;;;;;-144.52;75.47;84979.22;7396301;19;20435;-47
2024/04/01 06:24:39;;;;;;;822.77;766.30;;;;;;;-144.52;75.67;85008.97;7395878;19;20400;-45
2024/04/01 06:27:06;;;;;;;823.30;766.93;;;;;;;-144.52;75.79;85006.97;7395529;19;20406;-47
2024/04/01 06:29:33;;;;;;;820.08;763.67;;;;;;;-144.52;75.29;84993.09;7394068;19;21146;-44
2024/04/01 06:32:02;;;;;;;824.07;767.63;;;;;;;-144.52;75.30;84999.03;7395278;19;20753;-46
2024/04/01 06:34:30;;;;;;;823.67;766.93;;;;;;;-144.52;76.00;85014.91;7392337;19;21002;-43
2024/04/01 06:36:56;;;;;;;825.80;768.90;;;;;;;-144.52;75.50;85014.91;7396865;19;20481;-44
2024/04/01 06:39:22;;;;;;;807.30;750.80;;;;;;;-144.52;76.19;84991.13;7395615;19;20404;-43
2024/04/01 06:41:48;;;;;;;803.57;747.27;;;;;;;-144.52;75.77;85016.91;7399622;19;20396;-43
2024/04/01 06:44:16;;;;;;;823.17;766.53;;;;;;;-144.52;75.67;85001.03;7401629;19;20429;-44
2024/04/01 06:46:41;;;;;;;821.73;765.10;;;;;;;-144.52;75.63;85026.81;7402536;19;20425;-43
2024/04/01 06:49:10;;;;;;;820.33;763.37;;;;;;;-144.52;75.47;85003.00;7397255;19;20407;-42
2024/04/01 06:51:36;;;;;;;831.17;773.30;;;;;;;-144.52;76.01;85010.94;7400186;19;20399;-43
2024/04/01 06:54:03;;;;;;;814.57;758.17;;;;;;;-144.52;75.78;84995.06;7402732;19;20406;-43
2024/04/01 06:56:29;;;;;;;822.30;765.00;;;;;;;-144.52;75.32;84999.03;7401716;19;20412;-42
2024/04/01 06:58:55;;;;;;;823.83;766.53;;;;;;;-144.52;75.69;85022.84;7402208;19;20410;-43
2024/04/01 07:01:21;;;;;;;826.57;769.60;;;;;;;-144.52;75.96;85006.97;7402986;19;20735;-43
2024/04/01 07:03:47;;;;;;;821.43;764.33;;;;;;;-144.52;74.92;85010.94;7399264;19;20156;-44
2024/04/01 07:06:15;;;;;;;819.47;761.87;;;;;;;-144.52;74.71;84967.31;7401373;19;20792;-42
2024/04/01 07:08:41;;;;;;;826.60;768.77;;;;;;;-144.52;74.68;84981.19;7399772;19;20137;-42
2024/04/01 07:11:07;;;;;;;832.90;774.73;;;;;;;-144.52;74.61;84995.06;7400475;19;20435;-43
2024/04/01 07:13:33;;;;;;;834.40;776.33;;;;;;;-144.52;74.31;84953.41;7398169;19;20137;-46
2024/04/01 07:15:59;;;;;;;831.83;773.63;;;;;;;-144.52;73.71;84971.28;7400988;19;20426;-43
2024/04/01 07:18:25;;;;;;;820.97;763.47;;;;;;;-144.52;73.64;84935.56;7399089;19;20443;-42
2024/04/01 07:20:52;;;;;;;818.83;761.53;;;;;;;-144.52;73.75;84973.25;7400826;19;20400;-44
2024/04/01 07:23:20;;;;;;;827.47;769.67;;;;;;;-144.52;73.62;84927.63;7401402;19;20911;-49
2024/04/01 07:25:46;;;;;;;820.53;763.23;;;;;;;-144.52;73.64;84945.47;7394442;19;20408;-43
2024/04/01 07:28:13;;;;;;;832.67;774.83;;;;;;;-144.52;73.56;84975.25;7384392;19;20427;-43
2024/04/01 07:30:39;;;;;;;820.90;763.60;;;;;;;-144.52;73.57;84965.31;7394821;19;20417;-46
2024/04/01 07:33:05;;;;;;;818.77;761.60;;;;;;;-144.52;73.42;84931.59;7397138;19;20429;-43
2024/04/01 07:35:32;;;;;;;834.47;776.57;;;;;;;-144.52;73.17;84935.56;7398004;19;20410;-44
2024/04/01 07:37:58;;;;;;;834.20;776.23;;;;;;;-144.52;73.11;84949.44;7399447;19;20394;-43
2024/04/01 07:40:27;;;;;;;829.43;771.70;;;;;;;-144.52;73.23;84945.47;7398308;19;20507;-44
2024/04/01 07:42:55;;;;;;;811.67;754.87;;;;;;;-144.52;72.97;84941.50;7402150;19;20426;-43
2024/04/01 07:45:21;;;;;;;834.63;776.77;;;;;;;-144.52;73.32;84963.34;7400094;19;20405;-44
2024/04/01 07:47:48;;;;;;;814.13;757.17;;;;;;;-144.52;73.26;84923.66;7399954;19;20399;-43
2024/04/01 07:50:14;;;;;;;823.77;766.33;;;;;;;-144.52;73.16;84955.41;7390257;19;20421;-44
2024/04/01 07:52:42;;;;;;;811.03;754.03;;;;;;;-144.52;73.19;84955.41;7400356;19;20415;-43
2024/04/01 07:55:08;;;;;;;819.90;762.63;;;;;;;-144.52;73.23;84953.41;7400255;19;20406;-45
2024/04/01 07:57:36;;;;;;;814.23;757.13;;;;;;;-144.52;73.24;84945.47;7401138;19;20439;-43
2024/04/01 08:00:03;;;;;;;826.57;768.93;;;;;;;-144.52;73.35;84961.34;7399786;19;20401;-44
2024/04/01 08:02:37;;;;;;;826.37;768.83;;;;;;;-144.52;73.35;84951.44;7399739;19;20434;-43
2024/04/01 08:05:03;;;;;;;822.53;765.07;;;;;;;-144.52;73.35;84961.34;7400506;19;20431;-42
2024/04/01 08:07:29;;;;;;;817.70;760.53;;;;;;;-144.52;73.33;84945.47;7400468;19;20434;-43
2024/04/01 08:09:56;;;;;;;827.37;769.97;;;;;;;-144.52;73.38;84983.16;7398527;19;20747;-43
2024/04/01 08:12:22;;;;;;;815.53;758.47;;;;;;;-144.52;73.38;84973.25;7401271;19;20152;-42
2024/04/01 08:14:50;;;;;;;813.57;756.47;;;;;;;-144.52;73.52;84957.38;7399620;19;20391;-42
2024/04/01 08:17:16;;;;;;;816.60;759.40;;;;;;;-144.52;73.38;84971.28;7401318;19;20419;-43
2024/04/01 08:19:47;;;;;;;823.67;766.30;;;;;;;-144.52;73.31;84975.25;7399416;19;20392;-44
2024/04/01 08:22:14;;;;;;;813.93;756.90;;;;;;;-144.52;73.36;84939.53;7399986;19;20129;-47
2024/04/01 08:24:40;;;;;;;821.03;763.73;;;;;;;-144.52;73.46;85001.03;7398787;19;20782;-47
2024/04/01 08:27:07;;;;;;;829.13;771.33;;;;;;;-144.52;73.42;84963.34;7398343;19;20407;-42
2024/04/01 08:29:33;;;;;;;786.30;731.00;;;;;;;-144.52;73.33;84949.44;7398912;19;20134;-42
2024/04/01 08:32:01;;;;;;;784.03;727.17;;;;;;;-144.52;73.37;84957.38;7399230;19;20407;-43
2024/04/01 08:34:27;;;;;;;809.63;750.37;;;;;;;-144.52;73.38;84971.28;7400344;19;20455;-44
2024/04/01 08:36:53;;;;;;;794.40;738.17;;;;;;;-144.52;73.47;84965.31;7397171;19;20912;-45
2024/04/01 08:39:20;;;;;;;790.63;734.20;;;;;;;-144.52;73.40;84951.44;7400518;19;20119;-43
2024/04/01 08:41:51;;;;;;;817.70;756.80;;;;;;;-144.52;73.50;84975.25;7399060;19;20411;-42
2024/04/01 08:44:19;;;;;;;777.97;722.67;;;;;;;-144.52;73.45;84973.25;7396575;19;20399;-43
2024/04/01 08:46:50;;;;;;;788.00;732.17;;;;;;;-144.52;73.29;84945.47;7398295;19;20404;-42
2024/04/01 08:49:32;;;;;;;777.80;722.57;;;;;;;-144.52;73.93;84941.50;7394426;19;20439;-43
2024/04/01 08:52:03;;;;;;;794.80;738.90;;;;;;;-144.52;73.79;84951.44;7399598;19;20396;-44
2024/04/01 08:54:29;;;;;;;792.67;736.87;;;;;;;-144.52;73.79;84983.16;7398722;19;20431;-43
2024/04/01 08:56:56;;;;;;;804.20;748.13;;;;;;;-144.52;73.71;84981.19;7397678;19;20412;-43
2024/04/01 08:59:24;;;;;;;786.77;731.27;;;;;;;-144.52;73.75;84975.25;7399403;19;20407;-43
2024/04/01 09:01:50;;;;;;;775.90;722.10;;;;;;;-144.52;73.64;84979.22;7397147;19;20718;-44
2024/04/01 09:04:19;;;;;;;761.07;708.03;;;;;;;-144.52;73.51;84977.22;7394933;19;21004;-43
2024/04/01 09:06:45;;;;;;;768.07;714.90;;;;;;;-144.52;73.65;84995.06;7397604;19;20415;-44
2024/04/01 09:09:12;;;;;;;789.87;734.93;;;;;;;-144.52;73.61;84991.13;7397118;19;20919;-43
2024/04/01 09:11:39;;;;;;;768.73;715.03;;;;;;;-144.52;73.57;84987.16;7398302;19;20399;-42
2024/04/01 09:14:06;;;;;;;779.97;725.70;;;;;;;-144.52;73.53;84991.13;7396894;19;20428;-46
2024/04/01 09:16:32;;;;;;;796.07;740.63;;;;;;;-144.52;73.62;84983.16;7395021;19;20950;-43
2024/04/01 09:19:07;;;;;;;779.57;724.87;;;;;;;-144.52;73.66;85001.03;7391373;19;20454;-43
2024/04/01 09:21:36;;;;;;;767.97;713.83;;;;;;;-144.52;73.51;84973.25;7393723;19;20410;-44
2024/04/01 09:24:03;;;;;;;799.63;743.17;;;;;;;-144.52;73.44;84975.25;7395618;19;20744;-44
2024/04/01 09:26:30;;;;;;;891.37;827.97;;;;;;;-144.52;73.79;84927.63;7396111;19;20929;-60
2024/04/01 09:28:56;;;;;;;903.13;840.87;;;;;;;-144.52;73.36;84943.50;7398405;19;20466;-51
2024/04/01 09:31:23;;;;;;;889.30;826.23;;;;;;;-144.52;72.38;84911.75;7395824;19;20421;-41
2024/04/01 09:46:24;;;;;;;888.33;824.77;;;;;;;;;;7431853;19;20456;-36
2024/04/01 09:48:50;;;;;;;;;;;;;;;;;;7150435;19;20315;-42
2024/04/01 09:51:18;;;;;;;913.60;841.40;;;;;;;;;;6995721;19;71991;-37
2024/04/01 09:55:18;;;;;;;;;;;;;;;19.80;100.00;-21218.28;7194491;19;74859;-43
2024/04/01 09:58:08;;;;;;;;;;;;;;;19.88;100.00;-21220.34;7432189;19;19930;-37
2024/04/01 10:00:42;;;;;;;;;;;;;;;19.88;100.00;-21220.47;6570271;19;5012935;-36
2024/04/01 10:05:46;;;;;;;907.53;837.23;;;;;;;;;;7431535;19;20503;-41
2024/04/01 10:08:19;;;;;;;942.57;862.77;;;;;;;;;;7305734;19;20955;-32
2024/04/01 10:11:07;;;;;;;1140.60;999.90;;;;;;;;;;7432176;19;20912;-34
2024/04/01 10:13:54;;;;;;;916.20;842.93;;;;;;;;;;7138493;19;20418;-32
2024/04/01 10:19:56;;;;;;;905.03;833.63;;;;;;;;;;7174621;19;65249;-32
2024/04/01 10:22:36;;;;;;;908.07;837.03;;;;;;;;;;7168106;19;20442;-32
2024/04/01 10:27:05;;;;;;;;;;;;;;;21.27;60.73;99069.81;7432685;19;19899;-36
2024/04/01 10:29:43;;;;;;;;;;;;;;;20.12;63.83;99053.53;7280805;19;20264;-31
2024/04/01 10:32:27;;;;;;;;;;;;;;;19.97;64.54;99050.03;7434456;19;19917;-31
2024/04/01 10:36:08;;;;;;;;;;;;;;;19.99;64.34;99063.78;7009702;19;20317;-30
2024/04/01 10:39:09;;;;;;;949.60;879.40;;;;;;;20.07;64.27;99061.09;7216193;19;20336;-36
2024/04/01 10:42:09;;;;;;;825.87;770.00;;;;;;;20.04;64.28;99058.84;7326697;19;20189;-31
2024/04/01 10:47:24;;;;;;;922.27;838.57;;;;;;;;;;6935056;19;21128;-30
2024/04/01 10:50:02;;;;;;;801.97;743.67;;;;;;;;;;7199330;19;20433;-31
2024/04/01 10:52:49;;;;;;;800.87;742.87;;;;;;;;;;7376840;19;21094;-36
2024/04/01 10:55:32;;;;;;;810.50;751.67;;;;;;;;;;7322200;19;20488;-41
2024/04/01 10:59:31;;;;;;;1.50;1.00;;;;;;;;;;7079387;19;20171;-31
2024/04/01 11:02:10;;;;;;;1.03;1.03;;;;;;;;;;7381341;19;20183;-32
2024/04/01 11:06:41;;;;;;;1.83;1.03;;;;;;;20.13;63.59;99112.00;7087801;19;75043;-35
2024/04/01 11:09:21;;;;;;;1.90;1.00;;;;;;;20.07;63.58;99110.09;7325304;19;20199;-34
2024/04/01 11:11:56;;;;;;;4.33;1.30;;;;;;;20.09;63.92;99122.03;7431622;19;20196;-37
2024/04/01 11:14:24;;;;;;;1.57;1.07;;;;;;;19.99;63.58;99126.69;7377872;19;20186;-41
2024/04/01 11:16:55;;;;;;;1.60;1.13;;;;;;;19.96;63.14;99121.78;7432365;19;20120;-40
2024/04/01 11:20:30;;;;;;;867.63;792.83;;;;;;;19.92;63.64;99136.22;7417669;19;20512;-34
2024/04/01 11:23:34;;;;;;;847.57;776.83;;;;;;;19.79;63.69;99130.75;7431764;19;20405;-33
2024/04/01 11:42:00;;;;;;;24.98;10.00;;;;;;;20.51;100.00;-21237.28;7321924;19;20832;-38
2024/04/01 11:45:21;;;;;;;;;;;;;;;20.64;62.46;99189.22;7324579;19;20024;-35
2024/04/01 11:49:40;;;;;;;;;;;;;;;20.25;63.59;99194.50;7130394;19;20292;-39
2024/04/01 11:52:14;;;;;;;15.90;5.20;;;;;;;20.22;64.06;99194.84;7105104;19;20351;-44
2024/04/01 11:54:40;;;;;;;10.27;4.50;;;;;;;20.15;63.89;99210.47;7424011;19;20166;-35
2024/04/01 11:57:09;;;;;;;11.93;4.50;;;;;;;20.07;64.24;99218.38;7430965;19;20589;-37
2024/04/01 11:59:36;;;;;;;8.53;3.67;;;;;;;20.02;64.17;99225.94;7432739;19;20496;-38
2024/04/01 12:02:11;;;;;;;7.23;3.23;;;;;;;19.95;64.39;99225.00;7432938;19;20152;-35
2024/04/01 12:04:40;;;;;;;6.67;3.23;;;;;;;19.96;64.34;99231.88;7432664;19;20135;-36